sensor_id;sensor_type;location;lat;lon;timestamp;P1;durP1;ratioP1;P2;durP2;ratioP2
20101;SDS011;10210;52.284;9.892;2023-10-08T00:01:20;0.77;;;0.23;;
20101;SDS011;10210;52.284;9.892;2023-10-08T00:03:48;0.30;;;0.30;;
20101;SDS011;10210;52.284;9.892;2023-10-08T00:06:20;0.30;;;0.30;;
20101;SDS011;10210;52.284;9.892;2023-10-08T00:08:48;0.33;;;0.33;;
20101;SDS011;10210;52.284;9.892;2023-10-08T00:11:15;0.50;;;0.37;;
20101;SDS011;10210;52.284;9.892;2023-10-08T00:13:41;0.30;;;0.20;;
20101;SDS011;10210;52.284;9.892;2023-10-08T00:16:12;0.60;;;0.50;;
20101;SDS011;10210;52.284;9.892;2023-10-08T00:18:42;1.90;;;0.53;;
20101;SDS011;10210;52.284;9.892;2023-10-08T00:21:16;0.40;;;0.40;;
20101;SDS011;10210;52.284;9.892;2023-10-08T00:23:52;0.87;;;0.37;;
20101;SDS011;10210;52.284;9.892;2023-10-08T00:26:24;2.20;;;0.50;;
20101;SDS011;10210;52.284;9.892;2023-10-08T00:28:58;1.40;;;0.30;;
20101;SDS011;10210;52.284;9.892;2023-10-08T00:31:26;0.50;;;0.30;;
20101;SDS011;10210;52.284;9.892;2023-10-08T00:33:56;0.27;;;0.27;;
20101;SDS011;10210;52.284;9.892;2023-10-08T00:36:23;0.53;;;0.40;;
20101;SDS011;10210;52.284;9.892;2023-10-08T00:38:52;0.67;;;0.43;;
20101;SDS011;10210;52.284;9.892;2023-10-08T00:41:24;0.90;;;0.30;;
20101;SDS011;10210;52.284;9.892;2023-10-08T00:43:53;0.67;;;0.40;;
20101;SDS011;10210;52.284;9.892;2023-10-08T00:46:26;0.90;;;0.20;;
20101;SDS011;10210;52.284;9.892;2023-10-08T00:48:57;1.17;;;0.50;;
20101;SDS011;10210;52.284;9.892;2023-10-08T00:54:20;0.40;;;0.40;;
20101;SDS011;10210;52.284;9.892;2023-10-08T00:56:49;0.43;;;0.43;;
20101;SDS011;10210;52.284;9.892;2023-10-08T00:59:22;0.80;;;0.57;;
20101;SDS011;10210;52.284;9.892;2023-10-08T01:01:50;0.83;;;0.60;;
20101;SDS011;10210;52.284;9.892;2023-10-08T01:04:18;1.43;;;0.70;;
20101;SDS011;10210;52.284;9.892;2023-10-08T01:06:51;1.13;;;0.70;;
20101;SDS011;10210;52.284;9.892;2023-10-08T01:09:21;1.43;;;0.40;;
20101;SDS011;10210;52.284;9.892;2023-10-08T01:12:09;0.83;;;0.40;;
20101;SDS011;10210;52.284;9.892;2023-10-08T01:15:00;0.40;;;0.30;;
20101;SDS011;10210;52.284;9.892;2023-10-08T01:17:41;1.63;;;0.40;;
20101;SDS011;10210;52.284;9.892;2023-10-08T01:20:22;2.03;;;0.70;;
20101;SDS011;10210;52.284;9.892;2023-10-08T01:23:07;1.50;;;0.60;;
20101;SDS011;10210;52.284;9.892;2023-10-08T01:25:38;4.10;;;1.00;;
20101;SDS011;10210;52.284;9.892;2023-10-08T01:28:08;1.57;;;0.87;;
20101;SDS011;10210;52.284;9.892;2023-10-08T01:30:43;6.37;;;1.10;;
20101;SDS011;10210;52.284;9.892;2023-10-08T01:33:12;2.60;;;0.90;;
20101;SDS011;10210;52.284;9.892;2023-10-08T01:35:41;6.13;;;1.10;;
20101;SDS011;10210;52.284;9.892;2023-10-08T01:38:07;3.20;;;0.93;;
20101;SDS011;10210;52.284;9.892;2023-10-08T01:40:39;4.77;;;1.00;;
20101;SDS011;10210;52.284;9.892;2023-10-08T01:43:08;5.00;;;1.40;;
20101;SDS011;10210;52.284;9.892;2023-10-08T01:45:36;5.10;;;1.00;;
20101;SDS011;10210;52.284;9.892;2023-10-08T01:48:06;6.87;;;1.10;;
20101;SDS011;10210;52.284;9.892;2023-10-08T01:50:34;9.03;;;1.37;;
20101;SDS011;10210;52.284;9.892;2023-10-08T01:53:02;5.77;;;1.13;;
20101;SDS011;10210;52.284;9.892;2023-10-08T01:55:31;5.77;;;1.23;;
20101;SDS011;10210;52.284;9.892;2023-10-08T01:58:10;4.53;;;1.10;;
20101;SDS011;10210;52.284;9.892;2023-10-08T02:00:41;6.90;;;1.30;;
20101;SDS011;10210;52.284;9.892;2023-10-08T02:03:10;5.23;;;1.10;;
20101;SDS011;10210;52.284;9.892;2023-10-08T02:05:40;7.10;;;1.17;;
20101;SDS011;10210;52.284;9.892;2023-10-08T02:08:10;5.57;;;1.20;;
20101;SDS011;10210;52.284;9.892;2023-10-08T02:10:41;5.23;;;1.10;;
20101;SDS011;10210;52.284;9.892;2023-10-08T02:13:10;5.20;;;1.07;;
20101;SDS011;10210;52.284;9.892;2023-10-08T02:15:36;3.90;;;1.10;;
20101;SDS011;10210;52.284;9.892;2023-10-08T02:18:05;6.50;;;1.30;;
20101;SDS011;10210;52.284;9.892;2023-10-08T02:20:31;4.53;;;1.20;;
20101;SDS011;10210;52.284;9.892;2023-10-08T02:22:58;6.07;;;1.30;;
20101;SDS011;10210;52.284;9.892;2023-10-08T02:25:24;7.30;;;1.50;;
20101;SDS011;10210;52.284;9.892;2023-10-08T02:27:51;4.63;;;1.27;;
20101;SDS011;10210;52.284;9.892;2023-10-08T02:30:17;5.67;;;1.17;;
20101;SDS011;10210;52.284;9.892;2023-10-08T02:32:43;4.67;;;1.30;;
20101;SDS011;10210;52.284;9.892;2023-10-08T02:35:09;2.80;;;1.00;;
20101;SDS011;10210;52.284;9.892;2023-10-08T02:37:36;4.90;;;1.20;;
20101;SDS011;10210;52.284;9.892;2023-10-08T02:40:08;6.87;;;1.43;;
20101;SDS011;10210;52.284;9.892;2023-10-08T02:43:04;5.93;;;1.13;;
20101;SDS011;10210;52.284;9.892;2023-10-08T02:45:33;3.87;;;1.20;;
20101;SDS011;10210;52.284;9.892;2023-10-08T02:48:03;6.73;;;1.20;;
20101;SDS011;10210;52.284;9.892;2023-10-08T02:50:37;4.37;;;1.20;;
20101;SDS011;10210;52.284;9.892;2023-10-08T02:53:06;5.43;;;1.40;;
20101;SDS011;10210;52.284;9.892;2023-10-08T02:55:37;5.93;;;1.50;;
20101;SDS011;10210;52.284;9.892;2023-10-08T02:58:08;6.43;;;1.30;;
20101;SDS011;10210;52.284;9.892;2023-10-08T03:00:44;8.00;;;1.23;;
20101;SDS011;10210;52.284;9.892;2023-10-08T03:03:13;3.30;;;1.30;;
20101;SDS011;10210;52.284;9.892;2023-10-08T03:05:47;5.97;;;1.40;;
20101;SDS011;10210;52.284;9.892;2023-10-08T03:08:16;5.63;;;1.30;;
20101;SDS011;10210;52.284;9.892;2023-10-08T03:10:46;8.87;;;1.60;;
20101;SDS011;10210;52.284;9.892;2023-10-08T03:13:14;4.07;;;1.30;;
20101;SDS011;10210;52.284;9.892;2023-10-08T03:15:44;7.07;;;1.30;;
20101;SDS011;10210;52.284;9.892;2023-10-08T03:18:25;6.53;;;1.77;;
20101;SDS011;10210;52.284;9.892;2023-10-08T03:21:00;6.87;;;1.30;;
20101;SDS011;10210;52.284;9.892;2023-10-08T03:23:29;6.23;;;1.30;;
20101;SDS011;10210;52.284;9.892;2023-10-08T03:25:59;8.90;;;1.30;;
20101;SDS011;10210;52.284;9.892;2023-10-08T03:28:34;7.73;;;1.30;;
20101;SDS011;10210;52.284;9.892;2023-10-08T03:31:00;5.97;;;1.27;;
20101;SDS011;10210;52.284;9.892;2023-10-08T03:33:34;3.90;;;1.10;;
20101;SDS011;10210;52.284;9.892;2023-10-08T03:36:06;6.63;;;1.53;;
20101;SDS011;10210;52.284;9.892;2023-10-08T03:38:45;7.07;;;1.53;;
20101;SDS011;10210;52.284;9.892;2023-10-08T03:41:17;3.70;;;1.03;;
20101;SDS011;10210;52.284;9.892;2023-10-08T03:43:58;5.37;;;1.40;;
20101;SDS011;10210;52.284;9.892;2023-10-08T03:46:28;4.90;;;1.13;;
20101;SDS011;10210;52.284;9.892;2023-10-08T03:48:55;5.47;;;1.27;;
20101;SDS011;10210;52.284;9.892;2023-10-08T03:51:22;6.07;;;1.40;;
20101;SDS011;10210;52.284;9.892;2023-10-08T03:53:52;4.47;;;1.10;;
20101;SDS011;10210;52.284;9.892;2023-10-08T03:56:31;5.70;;;1.10;;
20101;SDS011;10210;52.284;9.892;2023-10-08T03:59:01;6.83;;;1.20;;
20101;SDS011;10210;52.284;9.892;2023-10-08T04:01:54;7.93;;;1.50;;
20101;SDS011;10210;52.284;9.892;2023-10-08T04:04:40;3.93;;;1.10;;
20101;SDS011;10210;52.284;9.892;2023-10-08T04:07:18;6.03;;;1.10;;
20101;SDS011;10210;52.284;9.892;2023-10-08T04:09:58;5.63;;;1.33;;
20101;SDS011;10210;52.284;9.892;2023-10-08T04:12:34;8.67;;;1.47;;
20101;SDS011;10210;52.284;9.892;2023-10-08T04:15:03;8.00;;;1.40;;
20101;SDS011;10210;52.284;9.892;2023-10-08T04:17:33;5.30;;;1.30;;
20101;SDS011;10210;52.284;9.892;2023-10-08T04:20:09;5.63;;;1.17;;
20101;SDS011;10210;52.284;9.892;2023-10-08T04:22:56;4.70;;;1.27;;
20101;SDS011;10210;52.284;9.892;2023-10-08T04:25:25;7.70;;;1.80;;
20101;SDS011;10210;52.284;9.892;2023-10-08T04:27:53;5.23;;;1.40;;
20101;SDS011;10210;52.284;9.892;2023-10-08T04:30:27;5.23;;;1.03;;
20101;SDS011;10210;52.284;9.892;2023-10-08T04:33:00;4.70;;;1.40;;
20101;SDS011;10210;52.284;9.892;2023-10-08T04:35:35;3.40;;;1.00;;
20101;SDS011;10210;52.284;9.892;2023-10-08T04:38:05;1.77;;;1.00;;
20101;SDS011;10210;52.284;9.892;2023-10-08T04:40:33;5.10;;;1.20;;
20101;SDS011;10210;52.284;9.892;2023-10-08T04:43:13;6.03;;;1.50;;
20101;SDS011;10210;52.284;9.892;2023-10-08T04:45:52;5.10;;;1.30;;
20101;SDS011;10210;52.284;9.892;2023-10-08T04:48:44;6.53;;;1.27;;
20101;SDS011;10210;52.284;9.892;2023-10-08T04:51:11;3.33;;;1.10;;
20101;SDS011;10210;52.284;9.892;2023-10-08T04:53:39;2.73;;;0.93;;
20101;SDS011;10210;52.284;9.892;2023-10-08T04:56:09;5.53;;;1.10;;
20101;SDS011;10210;52.284;9.892;2023-10-08T04:58:48;2.93;;;1.10;;
20101;SDS011;10210;52.284;9.892;2023-10-08T05:01:14;5.47;;;1.17;;
20101;SDS011;10210;52.284;9.892;2023-10-08T05:03:44;2.57;;;0.80;;
20101;SDS011;10210;52.284;9.892;2023-10-08T05:06:23;5.93;;;1.20;;
20101;SDS011;10210;52.284;9.892;2023-10-08T05:09:10;6.10;;;1.20;;
20101;SDS011;10210;52.284;9.892;2023-10-08T05:11:43;5.17;;;1.30;;
20101;SDS011;10210;52.284;9.892;2023-10-08T05:14:17;3.23;;;1.20;;
20101;SDS011;10210;52.284;9.892;2023-10-08T05:16:56;2.40;;;1.00;;
20101;SDS011;10210;52.284;9.892;2023-10-08T05:19:37;7.00;;;1.37;;
20101;SDS011;10210;52.284;9.892;2023-10-08T05:22:10;6.13;;;1.00;;
20101;SDS011;10210;52.284;9.892;2023-10-08T05:24:53;4.30;;;1.20;;
20101;SDS011;10210;52.284;9.892;2023-10-08T05:27:45;4.73;;;1.13;;
20101;SDS011;10210;52.284;9.892;2023-10-08T05:30:14;2.93;;;1.07;;
20101;SDS011;10210;52.284;9.892;2023-10-08T05:32:53;4.77;;;1.20;;
20101;SDS011;10210;52.284;9.892;2023-10-08T05:35:32;5.37;;;1.10;;
20101;SDS011;10210;52.284;9.892;2023-10-08T05:38:03;3.57;;;1.23;;
20101;SDS011;10210;52.284;9.892;2023-10-08T05:40:47;3.67;;;1.00;;
20101;SDS011;10210;52.284;9.892;2023-10-08T05:43:26;5.63;;;0.90;;
20101;SDS011;10210;52.284;9.892;2023-10-08T05:46:20;4.63;;;1.20;;
20101;SDS011;10210;52.284;9.892;2023-10-08T05:48:46;5.00;;;1.20;;
20101;SDS011;10210;52.284;9.892;2023-10-08T05:51:41;4.47;;;1.13;;
20101;SDS011;10210;52.284;9.892;2023-10-08T05:54:18;5.43;;;1.60;;
20101;SDS011;10210;52.284;9.892;2023-10-08T05:56:52;3.63;;;1.00;;
20101;SDS011;10210;52.284;9.892;2023-10-08T05:59:34;3.20;;;0.90;;
20101;SDS011;10210;52.284;9.892;2023-10-08T06:05:13;3.13;;;1.10;;
20101;SDS011;10210;52.284;9.892;2023-10-08T06:07:48;5.17;;;1.30;;
20101;SDS011;10210;52.284;9.892;2023-10-08T06:10:22;3.17;;;1.00;;
20101;SDS011;10210;52.284;9.892;2023-10-08T06:12:59;6.33;;;1.30;;
20101;SDS011;10210;52.284;9.892;2023-10-08T06:15:39;4.40;;;1.10;;
20101;SDS011;10210;52.284;9.892;2023-10-08T06:18:17;5.27;;;1.27;;
20101;SDS011;10210;52.284;9.892;2023-10-08T06:20:49;5.27;;;1.20;;
20101;SDS011;10210;52.284;9.892;2023-10-08T06:23:21;4.67;;;1.20;;
20101;SDS011;10210;52.284;9.892;2023-10-08T06:25:50;4.07;;;1.07;;
20101;SDS011;10210;52.284;9.892;2023-10-08T06:28:30;5.13;;;1.27;;
20101;SDS011;10210;52.284;9.892;2023-10-08T06:31:00;4.50;;;1.50;;
20101;SDS011;10210;52.284;9.892;2023-10-08T06:36:07;4.37;;;1.37;;
20101;SDS011;10210;52.284;9.892;2023-10-08T06:38:44;6.47;;;1.37;;
20101;SDS011;10210;52.284;9.892;2023-10-08T06:41:13;4.13;;;1.17;;
20101;SDS011;10210;52.284;9.892;2023-10-08T06:43:43;4.40;;;1.10;;
20101;SDS011;10210;52.284;9.892;2023-10-08T06:46:12;5.37;;;1.27;;
20101;SDS011;10210;52.284;9.892;2023-10-08T06:48:40;5.97;;;1.50;;
20101;SDS011;10210;52.284;9.892;2023-10-08T06:51:11;7.63;;;1.70;;
20101;SDS011;10210;52.284;9.892;2023-10-08T06:53:45;5.07;;;1.40;;
20101;SDS011;10210;52.284;9.892;2023-10-08T06:56:15;4.10;;;1.37;;
20101;SDS011;10210;52.284;9.892;2023-10-08T06:58:44;7.53;;;1.50;;
20101;SDS011;10210;52.284;9.892;2023-10-08T07:01:18;4.97;;;1.27;;
20101;SDS011;10210;52.284;9.892;2023-10-08T07:03:49;4.93;;;1.30;;
20101;SDS011;10210;52.284;9.892;2023-10-08T07:06:28;4.63;;;1.30;;
20101;SDS011;10210;52.284;9.892;2023-10-08T07:09:00;5.40;;;1.53;;
20101;SDS011;10210;52.284;9.892;2023-10-08T07:11:47;2.87;;;1.23;;
20101;SDS011;10210;52.284;9.892;2023-10-08T07:14:19;4.80;;;1.33;;
20101;SDS011;10210;52.284;9.892;2023-10-08T07:16:55;4.10;;;1.17;;
20101;SDS011;10210;52.284;9.892;2023-10-08T07:19:51;6.53;;;1.70;;
20101;SDS011;10210;52.284;9.892;2023-10-08T07:22:18;7.00;;;1.53;;
20101;SDS011;10210;52.284;9.892;2023-10-08T07:24:47;5.70;;;1.47;;
20101;SDS011;10210;52.284;9.892;2023-10-08T07:27:15;9.13;;;1.93;;
20101;SDS011;10210;52.284;9.892;2023-10-08T07:29:55;7.53;;;2.10;;
20101;SDS011;10210;52.284;9.892;2023-10-08T07:32:20;6.70;;;2.03;;
20101;SDS011;10210;52.284;9.892;2023-10-08T07:34:46;8.80;;;2.30;;
20101;SDS011;10210;52.284;9.892;2023-10-08T07:37:12;5.23;;;2.00;;
20101;SDS011;10210;52.284;9.892;2023-10-08T07:39:40;5.87;;;2.00;;
20101;SDS011;10210;52.284;9.892;2023-10-08T07:42:11;6.97;;;2.10;;
20101;SDS011;10210;52.284;9.892;2023-10-08T07:44:37;7.17;;;2.10;;
20101;SDS011;10210;52.284;9.892;2023-10-08T07:47:06;5.93;;;2.10;;
20101;SDS011;10210;52.284;9.892;2023-10-08T07:49:36;6.83;;;1.90;;
20101;SDS011;10210;52.284;9.892;2023-10-08T07:52:03;7.90;;;2.00;;
20101;SDS011;10210;52.284;9.892;2023-10-08T07:54:29;7.27;;;1.90;;
20101;SDS011;10210;52.284;9.892;2023-10-08T07:56:59;6.57;;;1.93;;
20101;SDS011;10210;52.284;9.892;2023-10-08T07:59:41;7.97;;;2.07;;
20101;SDS011;10210;52.284;9.892;2023-10-08T08:02:13;5.20;;;1.70;;
20101;SDS011;10210;52.284;9.892;2023-10-08T08:04:42;7.40;;;2.07;;
20101;SDS011;10210;52.284;9.892;2023-10-08T08:07:10;10.20;;;2.10;;
20101;SDS011;10210;52.284;9.892;2023-10-08T08:09:45;7.27;;;1.90;;
20101;SDS011;10210;52.284;9.892;2023-10-08T08:12:25;6.83;;;2.07;;
20101;SDS011;10210;52.284;9.892;2023-10-08T08:14:53;8.70;;;2.20;;
20101;SDS011;10210;52.284;9.892;2023-10-08T08:17:22;5.33;;;1.80;;
20101;SDS011;10210;52.284;9.892;2023-10-08T08:19:49;6.20;;;2.00;;
20101;SDS011;10210;52.284;9.892;2023-10-08T08:22:17;6.30;;;2.00;;
20101;SDS011;10210;52.284;9.892;2023-10-08T08:24:51;6.13;;;1.80;;
20101;SDS011;10210;52.284;9.892;2023-10-08T08:27:20;5.37;;;1.90;;
20101;SDS011;10210;52.284;9.892;2023-10-08T08:29:56;6.93;;;2.20;;
20101;SDS011;10210;52.284;9.892;2023-10-08T08:32:35;8.07;;;2.00;;
20101;SDS011;10210;52.284;9.892;2023-10-08T08:35:10;8.87;;;2.00;;
20101;SDS011;10210;52.284;9.892;2023-10-08T08:37:37;9.47;;;1.80;;
20101;SDS011;10210;52.284;9.892;2023-10-08T08:40:03;6.30;;;1.63;;
20101;SDS011;10210;52.284;9.892;2023-10-08T08:42:51;7.37;;;1.87;;
20101;SDS011;10210;52.284;9.892;2023-10-08T08:45:20;7.93;;;1.97;;
20101;SDS011;10210;52.284;9.892;2023-10-08T08:47:49;9.57;;;1.90;;
20101;SDS011;10210;52.284;9.892;2023-10-08T08:50:16;7.90;;;1.97;;
20101;SDS011;10210;52.284;9.892;2023-10-08T08:52:44;6.07;;;1.80;;
20101;SDS011;10210;52.284;9.892;2023-10-08T08:55:13;6.47;;;1.80;;
20101;SDS011;10210;52.284;9.892;2023-10-08T08:57:49;7.77;;;1.80;;
20101;SDS011;10210;52.284;9.892;2023-10-08T09:00:18;5.23;;;1.77;;
20101;SDS011;10210;52.284;9.892;2023-10-08T09:02:45;7.83;;;1.93;;
20101;SDS011;10210;52.284;9.892;2023-10-08T09:05:12;7.70;;;1.90;;
20101;SDS011;10210;52.284;9.892;2023-10-08T09:08:00;7.77;;;1.90;;
20101;SDS011;10210;52.284;9.892;2023-10-08T09:10:29;8.10;;;1.73;;
20101;SDS011;10210;52.284;9.892;2023-10-08T09:13:02;3.23;;;1.60;;
20101;SDS011;10210;52.284;9.892;2023-10-08T09:15:30;9.13;;;1.83;;
20101;SDS011;10210;52.284;9.892;2023-10-08T09:17:59;8.33;;;2.23;;
20101;SDS011;10210;52.284;9.892;2023-10-08T09:20:28;6.37;;;2.00;;
20101;SDS011;10210;52.284;9.892;2023-10-08T09:25:51;5.77;;;1.70;;
20101;SDS011;10210;52.284;9.892;2023-10-08T09:28:27;8.27;;;1.90;;
20101;SDS011;10210;52.284;9.892;2023-10-08T09:30:55;7.90;;;1.77;;
20101;SDS011;10210;52.284;9.892;2023-10-08T09:33:23;5.70;;;1.80;;
20101;SDS011;10210;52.284;9.892;2023-10-08T09:35:50;6.43;;;1.60;;
20101;SDS011;10210;52.284;9.892;2023-10-08T09:38:22;7.10;;;1.50;;
20101;SDS011;10210;52.284;9.892;2023-10-08T09:40:49;6.53;;;1.67;;
20101;SDS011;10210;52.284;9.892;2023-10-08T09:43:18;7.53;;;1.80;;
20101;SDS011;10210;52.284;9.892;2023-10-08T09:45:47;6.13;;;1.67;;
20101;SDS011;10210;52.284;9.892;2023-10-08T09:48:18;3.23;;;1.50;;
20101;SDS011;10210;52.284;9.892;2023-10-08T09:50:50;7.43;;;1.70;;
20101;SDS011;10210;52.284;9.892;2023-10-08T09:53:22;6.07;;;1.80;;
20101;SDS011;10210;52.284;9.892;2023-10-08T09:56:07;9.97;;;2.00;;
20101;SDS011;10210;52.284;9.892;2023-10-08T09:58:42;8.47;;;2.00;;
20101;SDS011;10210;52.284;9.892;2023-10-08T10:01:10;7.40;;;1.70;;
20101;SDS011;10210;52.284;9.892;2023-10-08T10:03:37;7.20;;;1.73;;
20101;SDS011;10210;52.284;9.892;2023-10-08T10:06:11;6.20;;;1.80;;
20101;SDS011;10210;52.284;9.892;2023-10-08T10:08:40;7.37;;;1.67;;
20101;SDS011;10210;52.284;9.892;2023-10-08T10:11:07;8.53;;;1.90;;
20101;SDS011;10210;52.284;9.892;2023-10-08T10:13:34;8.43;;;1.70;;
20101;SDS011;10210;52.284;9.892;2023-10-08T10:16:06;7.60;;;1.70;;
20101;SDS011;10210;52.284;9.892;2023-10-08T10:18:32;7.70;;;1.90;;
20101;SDS011;10210;52.284;9.892;2023-10-08T10:20:59;8.23;;;1.60;;
20101;SDS011;10210;52.284;9.892;2023-10-08T10:23:38;5.77;;;1.33;;
20101;SDS011;10210;52.284;9.892;2023-10-08T10:29:17;8.20;;;2.10;;
20101;SDS011;10210;52.284;9.892;2023-10-08T10:31:45;7.57;;;1.43;;
20101;SDS011;10210;52.284;9.892;2023-10-08T10:34:14;10.90;;;1.70;;
20101;SDS011;10210;52.284;9.892;2023-10-08T10:36:47;8.30;;;1.67;;
20101;SDS011;10210;52.284;9.892;2023-10-08T10:39:20;5.77;;;1.50;;
20101;SDS011;10210;52.284;9.892;2023-10-08T10:41:56;7.47;;;1.53;;
20101;SDS011;10210;52.284;9.892;2023-10-08T10:44:27;9.23;;;1.47;;
20101;SDS011;10210;52.284;9.892;2023-10-08T10:46:57;8.03;;;1.93;;
20101;SDS011;10210;52.284;9.892;2023-10-08T10:49:43;5.00;;;1.63;;
20101;SDS011;10210;52.284;9.892;2023-10-08T10:52:16;9.13;;;1.83;;
20101;SDS011;10210;52.284;9.892;2023-10-08T10:55:07;6.97;;;1.97;;
20101;SDS011;10210;52.284;9.892;2023-10-08T10:57:39;6.97;;;1.70;;
20101;SDS011;10210;52.284;9.892;2023-10-08T11:00:36;4.97;;;1.50;;
20101;SDS011;10210;52.284;9.892;2023-10-08T11:03:12;8.97;;;1.60;;
20101;SDS011;10210;52.284;9.892;2023-10-08T11:05:41;3.43;;;1.20;;
20101;SDS011;10210;52.284;9.892;2023-10-08T11:08:15;8.57;;;1.70;;
20101;SDS011;10210;52.284;9.892;2023-10-08T11:10:44;5.93;;;1.50;;
20101;SDS011;10210;52.284;9.892;2023-10-08T11:13:15;9.03;;;1.80;;
20101;SDS011;10210;52.284;9.892;2023-10-08T11:15:43;7.23;;;1.60;;
20101;SDS011;10210;52.284;9.892;2023-10-08T11:18:15;6.80;;;1.63;;
20101;SDS011;10210;52.284;9.892;2023-10-08T11:20:46;6.60;;;1.50;;
20101;SDS011;10210;52.284;9.892;2023-10-08T11:23:35;6.40;;;1.70;;
20101;SDS011;10210;52.284;9.892;2023-10-08T11:26:03;8.37;;;1.93;;
20101;SDS011;10210;52.284;9.892;2023-10-08T11:28:31;8.53;;;1.67;;
20101;SDS011;10210;52.284;9.892;2023-10-08T11:31:00;8.87;;;1.83;;
20101;SDS011;10210;52.284;9.892;2023-10-08T11:33:36;9.50;;;1.70;;
20101;SDS011;10210;52.284;9.892;2023-10-08T11:36:07;8.13;;;1.70;;
20101;SDS011;10210;52.284;9.892;2023-10-08T11:38:44;8.27;;;1.80;;
20101;SDS011;10210;52.284;9.892;2023-10-08T11:41:15;6.80;;;1.70;;
20101;SDS011;10210;52.284;9.892;2023-10-08T11:43:51;8.03;;;2.00;;
20101;SDS011;10210;52.284;9.892;2023-10-08T11:46:33;7.70;;;1.70;;
20101;SDS011;10210;52.284;9.892;2023-10-08T11:49:09;6.47;;;1.50;;
20101;SDS011;10210;52.284;9.892;2023-10-08T11:51:43;5.67;;;1.27;;
20101;SDS011;10210;52.284;9.892;2023-10-08T11:54:14;5.73;;;1.53;;
20101;SDS011;10210;52.284;9.892;2023-10-08T11:56:40;5.10;;;1.40;;
20101;SDS011;10210;52.284;9.892;2023-10-08T11:59:09;6.77;;;1.70;;
20101;SDS011;10210;52.284;9.892;2023-10-08T12:01:35;6.57;;;1.80;;
20101;SDS011;10210;52.284;9.892;2023-10-08T12:04:02;7.80;;;1.70;;
20101;SDS011;10210;52.284;9.892;2023-10-08T12:06:30;6.93;;;1.80;;
20101;SDS011;10210;52.284;9.892;2023-10-08T12:08:56;6.87;;;1.70;;
20101;SDS011;10210;52.284;9.892;2023-10-08T12:11:24;6.20;;;1.50;;
20101;SDS011;10210;52.284;9.892;2023-10-08T12:13:59;6.03;;;1.97;;
20101;SDS011;10210;52.284;9.892;2023-10-08T12:16:25;4.87;;;1.60;;
20101;SDS011;10210;52.284;9.892;2023-10-08T12:18:56;4.77;;;1.50;;
20101;SDS011;10210;52.284;9.892;2023-10-08T12:21:26;7.20;;;1.70;;
20101;SDS011;10210;52.284;9.892;2023-10-08T12:23:59;7.37;;;1.73;;
20101;SDS011;10210;52.284;9.892;2023-10-08T12:26:30;6.57;;;2.00;;
20101;SDS011;10210;52.284;9.892;2023-10-08T12:28:57;8.20;;;1.90;;
20101;SDS011;10210;52.284;9.892;2023-10-08T12:31:23;6.80;;;1.90;;
20101;SDS011;10210;52.284;9.892;2023-10-08T12:33:49;6.70;;;1.90;;
20101;SDS011;10210;52.284;9.892;2023-10-08T12:36:18;6.27;;;2.00;;
20101;SDS011;10210;52.284;9.892;2023-10-08T12:38:48;7.03;;;2.00;;
20101;SDS011;10210;52.284;9.892;2023-10-08T12:41:23;7.93;;;2.00;;
20101;SDS011;10210;52.284;9.892;2023-10-08T12:43:52;9.90;;;2.43;;
20101;SDS011;10210;52.284;9.892;2023-10-08T12:46:20;9.97;;;1.93;;
20101;SDS011;10210;52.284;9.892;2023-10-08T12:48:49;6.53;;;2.03;;
20101;SDS011;10210;52.284;9.892;2023-10-08T12:51:20;5.90;;;1.90;;
20101;SDS011;10210;52.284;9.892;2023-10-08T12:53:49;8.37;;;1.90;;
20101;SDS011;10210;52.284;9.892;2023-10-08T12:56:29;7.13;;;1.80;;
20101;SDS011;10210;52.284;9.892;2023-10-08T12:59:03;6.97;;;1.97;;
20101;SDS011;10210;52.284;9.892;2023-10-08T13:01:33;6.70;;;1.90;;
20101;SDS011;10210;52.284;9.892;2023-10-08T13:04:02;8.93;;;2.20;;
20101;SDS011;10210;52.284;9.892;2023-10-08T13:06:32;6.83;;;2.13;;
20101;SDS011;10210;52.284;9.892;2023-10-08T13:09:13;9.40;;;2.27;;
20101;SDS011;10210;52.284;9.892;2023-10-08T13:11:38;10.50;;;2.20;;
20101;SDS011;10210;52.284;9.892;2023-10-08T13:14:05;6.97;;;1.83;;
20101;SDS011;10210;52.284;9.892;2023-10-08T13:16:31;6.27;;;1.80;;
20101;SDS011;10210;52.284;9.892;2023-10-08T13:18:58;7.67;;;1.90;;
20101;SDS011;10210;52.284;9.892;2023-10-08T13:21:27;6.23;;;1.70;;
20101;SDS011;10210;52.284;9.892;2023-10-08T13:23:53;6.53;;;1.70;;
20101;SDS011;10210;52.284;9.892;2023-10-08T13:26:26;4.13;;;1.50;;
20101;SDS011;10210;52.284;9.892;2023-10-08T13:28:56;9.23;;;1.70;;
20101;SDS011;10210;52.284;9.892;2023-10-08T13:31:26;6.87;;;1.83;;
20101;SDS011;10210;52.284;9.892;2023-10-08T13:33:53;4.77;;;1.50;;
20101;SDS011;10210;52.284;9.892;2023-10-08T13:36:22;8.60;;;2.00;;
20101;SDS011;10210;52.284;9.892;2023-10-08T13:38:50;6.27;;;1.80;;
20101;SDS011;10210;52.284;9.892;2023-10-08T13:41:16;4.77;;;1.70;;
20101;SDS011;10210;52.284;9.892;2023-10-08T13:43:49;8.23;;;2.23;;
20101;SDS011;10210;52.284;9.892;2023-10-08T13:46:27;5.23;;;1.70;;
20101;SDS011;10210;52.284;9.892;2023-10-08T13:48:54;7.43;;;1.80;;
20101;SDS011;10210;52.284;9.892;2023-10-08T13:51:24;7.27;;;1.90;;
20101;SDS011;10210;52.284;9.892;2023-10-08T13:53:51;5.93;;;1.70;;
20101;SDS011;10210;52.284;9.892;2023-10-08T13:56:25;5.27;;;1.50;;
20101;SDS011;10210;52.284;9.892;2023-10-08T13:58:57;6.47;;;1.80;;
20101;SDS011;10210;52.284;9.892;2023-10-08T14:01:40;6.00;;;1.67;;
20101;SDS011;10210;52.284;9.892;2023-10-08T14:04:10;9.37;;;1.73;;
20101;SDS011;10210;52.284;9.892;2023-10-08T14:06:42;5.77;;;1.67;;
20101;SDS011;10210;52.284;9.892;2023-10-08T14:09:13;4.97;;;1.50;;
20101;SDS011;10210;52.284;9.892;2023-10-08T14:11:45;7.53;;;1.77;;
20101;SDS011;10210;52.284;9.892;2023-10-08T14:14:12;5.13;;;1.73;;
20101;SDS011;10210;52.284;9.892;2023-10-08T14:16:41;7.90;;;1.73;;
20101;SDS011;10210;52.284;9.892;2023-10-08T14:19:08;7.70;;;1.80;;
20101;SDS011;10210;52.284;9.892;2023-10-08T14:21:37;4.47;;;1.50;;
20101;SDS011;10210;52.284;9.892;2023-10-08T14:24:20;7.40;;;1.50;;
20101;SDS011;10210;52.284;9.892;2023-10-08T14:26:46;4.73;;;1.53;;
20101;SDS011;10210;52.284;9.892;2023-10-08T14:29:19;7.70;;;1.50;;
20101;SDS011;10210;52.284;9.892;2023-10-08T14:31:45;5.30;;;1.37;;
20101;SDS011;10210;52.284;9.892;2023-10-08T14:34:18;8.27;;;1.80;;
20101;SDS011;10210;52.284;9.892;2023-10-08T14:36:44;9.07;;;1.70;;
20101;SDS011;10210;52.284;9.892;2023-10-08T14:39:33;5.87;;;1.60;;
20101;SDS011;10210;52.284;9.892;2023-10-08T14:42:20;4.93;;;1.40;;
20101;SDS011;10210;52.284;9.892;2023-10-08T14:45:04;7.27;;;1.40;;
20101;SDS011;10210;52.284;9.892;2023-10-08T14:47:39;6.23;;;1.50;;
20101;SDS011;10210;52.284;9.892;2023-10-08T14:50:06;7.00;;;1.40;;
20101;SDS011;10210;52.284;9.892;2023-10-08T14:52:45;4.43;;;1.43;;
20101;SDS011;10210;52.284;9.892;2023-10-08T14:55:11;5.93;;;1.60;;
20101;SDS011;10210;52.284;9.892;2023-10-08T14:57:41;7.33;;;1.40;;
20101;SDS011;10210;52.284;9.892;2023-10-08T15:00:07;6.97;;;2.27;;
20101;SDS011;10210;52.284;9.892;2023-10-08T15:02:37;6.97;;;1.50;;
20101;SDS011;10210;52.284;9.892;2023-10-08T15:05:08;7.47;;;1.77;;
20101;SDS011;10210;52.284;9.892;2023-10-08T15:07:36;7.70;;;1.87;;
20101;SDS011;10210;52.284;9.892;2023-10-08T15:10:02;3.53;;;1.33;;
20101;SDS011;10210;52.284;9.892;2023-10-08T15:12:28;6.03;;;1.50;;
20101;SDS011;10210;52.284;9.892;2023-10-08T15:14:55;7.30;;;1.70;;
20101;SDS011;10210;52.284;9.892;2023-10-08T15:17:23;5.97;;;1.50;;
20101;SDS011;10210;52.284;9.892;2023-10-08T15:19:50;8.37;;;1.50;;
20101;SDS011;10210;52.284;9.892;2023-10-08T15:22:16;9.00;;;1.33;;
20101;SDS011;10210;52.284;9.892;2023-10-08T15:24:42;7.67;;;1.50;;
20101;SDS011;10210;52.284;9.892;2023-10-08T15:27:08;7.23;;;1.60;;
20101;SDS011;10210;52.284;9.892;2023-10-08T15:29:35;5.17;;;1.27;;
20101;SDS011;10210;52.284;9.892;2023-10-08T15:32:02;4.50;;;1.30;;